sensor_id;sensor_type;location;lat;lon;timestamp;P1;durP1;ratioP1;P2;durP2;ratioP2
46561;SDS011;32289;42.688;23.330;2023-12-28T00:00:26;30.05;;;12.13;;
46561;SDS011;32289;42.688;23.330;2023-12-28T00:04:06;28.73;;;11.85;;
46561;SDS011;32289;42.688;23.330;2023-12-28T00:07:47;26.02;;;11.52;;
46561;SDS011;32289;42.688;23.330;2023-12-28T00:11:28;30.48;;;13.27;;
46561;SDS011;32289;42.688;23.330;2023-12-28T00:15:09;29.35;;;12.23;;
46561;SDS011;32289;42.688;23.330;2023-12-28T00:18:49;23.38;;;13.07;;
46561;SDS011;32289;42.688;23.330;2023-12-28T00:22:30;32.45;;;11.38;;
46561;SDS011;32289;42.688;23.330;2023-12-28T00:26:11;33.00;;;12.98;;
46561;SDS011;32289;42.688;23.330;2023-12-28T00:29:52;35.65;;;13.60;;
46561;SDS011;32289;42.688;23.330;2023-12-28T00:33:32;34.53;;;13.35;;
46561;SDS011;32289;42.688;23.330;2023-12-28T00:37:13;33.05;;;13.00;;
46561;SDS011;32289;42.688;23.330;2023-12-28T00:40:54;29.67;;;13.07;;
46561;SDS011;32289;42.688;23.330;2023-12-28T00:44:35;30.23;;;12.88;;
46561;SDS011;32289;42.688;23.330;2023-12-28T00:48:15;20.27;;;11.10;;
46561;SDS011;32289;42.688;23.330;2023-12-28T00:51:56;26.08;;;11.73;;
46561;SDS011;32289;42.688;23.330;2023-12-28T00:55:37;30.30;;;11.90;;
46561;SDS011;32289;42.688;23.330;2023-12-28T00:59:17;29.52;;;11.95;;
46561;SDS011;32289;42.688;23.330;2023-12-28T01:02:58;28.45;;;12.13;;
46561;SDS011;32289;42.688;23.330;2023-12-28T01:06:39;33.08;;;13.13;;
46561;SDS011;32289;42.688;23.330;2023-12-28T01:10:20;29.70;;;12.60;;
46561;SDS011;32289;42.688;23.330;2023-12-28T01:14:01;31.13;;;13.35;;
46561;SDS011;32289;42.688;23.330;2023-12-28T01:17:43;22.98;;;10.52;;
46561;SDS011;32289;42.688;23.330;2023-12-28T01:21:24;25.50;;;11.45;;
46561;SDS011;32289;42.688;23.330;2023-12-28T01:25:04;28.80;;;11.27;;
46561;SDS011;32289;42.688;23.330;2023-12-28T01:28:46;22.00;;;11.30;;
46561;SDS011;32289;42.688;23.330;2023-12-28T01:32:27;23.35;;;12.30;;
46561;SDS011;32289;42.688;23.330;2023-12-28T01:36:26;23.67;;;12.05;;
46561;SDS011;32289;42.688;23.330;2023-12-28T01:40:09;27.42;;;11.45;;
46561;SDS011;32289;42.688;23.330;2023-12-28T01:43:50;24.73;;;10.68;;
46561;SDS011;32289;42.688;23.330;2023-12-28T01:47:31;24.77;;;11.73;;
46561;SDS011;32289;42.688;23.330;2023-12-28T01:51:12;27.92;;;12.10;;
46561;SDS011;32289;42.688;23.330;2023-12-28T01:54:54;20.38;;;11.27;;
46561;SDS011;32289;42.688;23.330;2023-12-28T01:58:35;22.83;;;10.65;;
46561;SDS011;32289;42.688;23.330;2023-12-28T02:02:17;25.33;;;10.18;;
46561;SDS011;32289;42.688;23.330;2023-12-28T02:05:59;30.00;;;12.02;;
46561;SDS011;32289;42.688;23.330;2023-12-28T02:09:41;25.23;;;11.63;;
46561;SDS011;32289;42.688;23.330;2023-12-28T02:13:22;22.75;;;11.32;;
46561;SDS011;32289;42.688;23.330;2023-12-28T02:17:05;31.52;;;10.88;;
46561;SDS011;32289;42.688;23.330;2023-12-28T02:20:53;26.08;;;11.35;;
46561;SDS011;32289;42.688;23.330;2023-12-28T02:28:56;28.77;;;11.15;;
46561;SDS011;32289;42.688;23.330;2023-12-28T02:36:39;26.30;;;9.85;;
46561;SDS011;32289;42.688;23.330;2023-12-28T02:40:23;22.90;;;10.10;;
46561;SDS011;32289;42.688;23.330;2023-12-28T02:44:05;21.63;;;9.82;;
46561;SDS011;32289;42.688;23.330;2023-12-28T02:47:46;22.50;;;10.02;;
46561;SDS011;32289;42.688;23.330;2023-12-28T02:51:26;33.65;;;12.65;;
46561;SDS011;32289;42.688;23.330;2023-12-28T02:55:07;45.50;;;15.75;;
46561;SDS011;32289;42.688;23.330;2023-12-28T02:58:48;40.17;;;17.88;;
46561;SDS011;32289;42.688;23.330;2023-12-28T03:02:29;39.72;;;17.00;;
46561;SDS011;32289;42.688;23.330;2023-12-28T03:06:10;43.30;;;17.55;;
46561;SDS011;32289;42.688;23.330;2023-12-28T03:09:50;45.30;;;18.45;;
46561;SDS011;32289;42.688;23.330;2023-12-28T03:13:31;37.92;;;16.75;;
46561;SDS011;32289;42.688;23.330;2023-12-28T03:17:12;50.63;;;18.90;;
46561;SDS011;32289;42.688;23.330;2023-12-28T03:20:56;34.22;;;15.05;;
46561;SDS011;32289;42.688;23.330;2023-12-28T03:24:37;43.50;;;18.25;;
46561;SDS011;32289;42.688;23.330;2023-12-28T03:28:18;38.42;;;17.65;;
46561;SDS011;32289;42.688;23.330;2023-12-28T03:32:03;38.90;;;18.35;;
46561;SDS011;32289;42.688;23.330;2023-12-28T03:35:44;33.53;;;17.48;;
46561;SDS011;32289;42.688;23.330;2023-12-28T03:39:25;38.85;;;16.63;;
46561;SDS011;32289;42.688;23.330;2023-12-28T03:43:06;45.90;;;18.75;;
46561;SDS011;32289;42.688;23.330;2023-12-28T03:46:50;41.58;;;17.23;;
46561;SDS011;32289;42.688;23.330;2023-12-28T03:50:31;40.88;;;18.13;;
46561;SDS011;32289;42.688;23.330;2023-12-28T03:54:12;48.60;;;17.70;;
46561;SDS011;32289;42.688;23.330;2023-12-28T03:57:55;33.53;;;16.25;;
46561;SDS011;32289;42.688;23.330;2023-12-28T04:01:36;51.20;;;20.15;;
46561;SDS011;32289;42.688;23.330;2023-12-28T04:05:17;41.15;;;19.75;;
46561;SDS011;32289;42.688;23.330;2023-12-28T04:08:57;43.30;;;17.35;;
46561;SDS011;32289;42.688;23.330;2023-12-28T04:12:38;51.05;;;18.17;;
46561;SDS011;32289;42.688;23.330;2023-12-28T04:16:19;32.45;;;16.25;;
46561;SDS011;32289;42.688;23.330;2023-12-28T04:20:00;42.55;;;17.88;;
46561;SDS011;32289;42.688;23.330;2023-12-28T04:23:40;42.10;;;17.40;;
46561;SDS011;32289;42.688;23.330;2023-12-28T04:27:21;35.47;;;15.63;;
46561;SDS011;32289;42.688;23.330;2023-12-28T04:31:03;42.72;;;18.13;;
46561;SDS011;32289;42.688;23.330;2023-12-28T04:34:44;41.45;;;17.02;;
46561;SDS011;32289;42.688;23.330;2023-12-28T04:38:25;38.35;;;18.13;;
46561;SDS011;32289;42.688;23.330;2023-12-28T04:42:06;33.78;;;15.52;;
46561;SDS011;32289;42.688;23.330;2023-12-28T04:45:46;38.60;;;16.63;;
46561;SDS011;32289;42.688;23.330;2023-12-28T04:49:27;36.25;;;16.33;;
46561;SDS011;32289;42.688;23.330;2023-12-28T04:53:08;40.95;;;17.73;;
46561;SDS011;32289;42.688;23.330;2023-12-28T04:56:49;36.78;;;16.25;;
46561;SDS011;32289;42.688;23.330;2023-12-28T05:00:29;37.50;;;16.05;;
46561;SDS011;32289;42.688;23.330;2023-12-28T05:04:10;33.15;;;14.30;;
46561;SDS011;32289;42.688;23.330;2023-12-28T05:07:51;37.95;;;16.50;;
46561;SDS011;32289;42.688;23.330;2023-12-28T05:11:32;45.28;;;17.83;;
46561;SDS011;32289;42.688;23.330;2023-12-28T05:15:13;32.22;;;16.92;;
46561;SDS011;32289;42.688;23.330;2023-12-28T05:18:54;29.20;;;16.10;;
46561;SDS011;32289;42.688;23.330;2023-12-28T05:22:35;37.28;;;15.60;;
46561;SDS011;32289;42.688;23.330;2023-12-28T05:26:15;40.22;;;16.50;;
46561;SDS011;32289;42.688;23.330;2023-12-28T05:29:56;36.20;;;14.57;;
46561;SDS011;32289;42.688;23.330;2023-12-28T05:33:36;39.85;;;15.75;;
46561;SDS011;32289;42.688;23.330;2023-12-28T05:37:17;31.60;;;13.88;;
46561;SDS011;32289;42.688;23.330;2023-12-28T05:40:58;27.88;;;14.68;;
46561;SDS011;32289;42.688;23.330;2023-12-28T05:44:38;35.22;;;15.48;;
46561;SDS011;32289;42.688;23.330;2023-12-28T05:48:19;39.42;;;16.70;;
46561;SDS011;32289;42.688;23.330;2023-12-28T05:52:00;40.83;;;13.77;;
46561;SDS011;32289;42.688;23.330;2023-12-28T05:55:41;33.30;;;14.23;;
46561;SDS011;32289;42.688;23.330;2023-12-28T05:59:22;39.05;;;15.98;;
46561;SDS011;32289;42.688;23.330;2023-12-28T06:03:02;34.72;;;15.45;;
46561;SDS011;32289;42.688;23.330;2023-12-28T06:06:43;32.53;;;16.02;;
46561;SDS011;32289;42.688;23.330;2023-12-28T06:10:24;45.78;;;16.98;;
46561;SDS011;32289;42.688;23.330;2023-12-28T06:14:05;36.70;;;16.60;;
46561;SDS011;32289;42.688;23.330;2023-12-28T06:17:46;42.67;;;16.35;;
46561;SDS011;32289;42.688;23.330;2023-12-28T06:21:26;39.33;;;18.90;;
46561;SDS011;32289;42.688;23.330;2023-12-28T06:25:10;45.45;;;17.88;;
46561;SDS011;32289;42.688;23.330;2023-12-28T06:28:53;39.08;;;18.77;;
46561;SDS011;32289;42.688;23.330;2023-12-28T06:32:33;35.47;;;16.90;;
46561;SDS011;32289;42.688;23.330;2023-12-28T06:36:14;38.67;;;18.38;;
46561;SDS011;32289;42.688;23.330;2023-12-28T06:39:57;37.22;;;16.48;;
46561;SDS011;32289;42.688;23.330;2023-12-28T06:43:38;36.55;;;16.13;;
46561;SDS011;32289;42.688;23.330;2023-12-28T06:47:19;31.52;;;15.35;;
46561;SDS011;32289;42.688;23.330;2023-12-28T06:51:00;37.30;;;16.38;;
46561;SDS011;32289;42.688;23.330;2023-12-28T06:54:41;42.42;;;16.98;;
46561;SDS011;32289;42.688;23.330;2023-12-28T06:58:21;36.10;;;17.15;;
46561;SDS011;32289;42.688;23.330;2023-12-28T07:02:02;34.20;;;15.98;;
46561;SDS011;32289;42.688;23.330;2023-12-28T07:05:43;42.22;;;18.13;;
46561;SDS011;32289;42.688;23.330;2023-12-28T07:09:23;44.13;;;18.13;;
46561;SDS011;32289;42.688;23.330;2023-12-28T07:13:04;38.35;;;17.25;;
46561;SDS011;32289;42.688;23.330;2023-12-28T07:16:45;45.90;;;19.38;;
46561;SDS011;32289;42.688;23.330;2023-12-28T07:20:25;39.25;;;17.80;;
46561;SDS011;32289;42.688;23.330;2023-12-28T07:24:06;35.88;;;16.48;;
46561;SDS011;32289;42.688;23.330;2023-12-28T07:27:47;37.50;;;17.13;;
46561;SDS011;32289;42.688;23.330;2023-12-28T07:31:27;45.90;;;18.75;;
46561;SDS011;32289;42.688;23.330;2023-12-28T07:35:08;38.75;;;15.15;;
46561;SDS011;32289;42.688;23.330;2023-12-28T07:38:49;35.70;;;15.95;;
46561;SDS011;32289;42.688;23.330;2023-12-28T07:42:30;37.35;;;16.77;;
46561;SDS011;32289;42.688;23.330;2023-12-28T07:46:11;36.00;;;17.33;;
46561;SDS011;32289;42.688;23.330;2023-12-28T07:49:51;29.42;;;15.32;;
46561;SDS011;32289;42.688;23.330;2023-12-28T07:53:32;35.83;;;16.48;;
46561;SDS011;32289;42.688;23.330;2023-12-28T07:57:13;37.90;;;16.73;;
46561;SDS011;32289;42.688;23.330;2023-12-28T08:00:54;34.47;;;15.00;;
46561;SDS011;32289;42.688;23.330;2023-12-28T08:04:34;30.23;;;14.90;;
46561;SDS011;32289;42.688;23.330;2023-12-28T08:08:15;38.72;;;16.63;;
46561;SDS011;32289;42.688;23.330;2023-12-28T08:11:56;29.10;;;14.65;;
46561;SDS011;32289;42.688;23.330;2023-12-28T08:15:37;35.10;;;14.30;;
46561;SDS011;32289;42.688;23.330;2023-12-28T08:19:17;28.20;;;12.68;;
46561;SDS011;32289;42.688;23.330;2023-12-28T08:22:59;34.38;;;13.75;;
46561;SDS011;32289;42.688;23.330;2023-12-28T08:26:40;27.80;;;12.25;;
46561;SDS011;32289;42.688;23.330;2023-12-28T08:30:21;30.38;;;14.40;;
46561;SDS011;32289;42.688;23.330;2023-12-28T08:34:02;32.08;;;15.52;;
46561;SDS011;32289;42.688;23.330;2023-12-28T08:37:43;34.33;;;14.88;;
46561;SDS011;32289;42.688;23.330;2023-12-28T08:41:26;36.75;;;17.30;;
46561;SDS011;32289;42.688;23.330;2023-12-28T08:45:07;40.45;;;18.92;;
46561;SDS011;32289;42.688;23.330;2023-12-28T08:48:48;35.78;;;17.65;;
46561;SDS011;32289;42.688;23.330;2023-12-28T08:52:28;44.78;;;20.30;;
46561;SDS011;32289;42.688;23.330;2023-12-28T08:56:16;50.35;;;20.00;;
46561;SDS011;32289;42.688;23.330;2023-12-28T09:00:00;44.67;;;19.73;;
46561;SDS011;32289;42.688;23.330;2023-12-28T09:03:43;35.85;;;18.10;;
46561;SDS011;32289;42.688;23.330;2023-12-28T09:07:23;46.38;;;18.88;;
46561;SDS011;32289;42.688;23.330;2023-12-28T09:11:07;35.72;;;17.05;;
46561;SDS011;32289;42.688;23.330;2023-12-28T09:14:50;38.53;;;17.27;;
46561;SDS011;32289;42.688;23.330;2023-12-28T09:18:33;33.78;;;17.63;;
46561;SDS011;32289;42.688;23.330;2023-12-28T09:22:17;41.00;;;20.17;;
46561;SDS011;32289;42.688;23.330;2023-12-28T09:26:02;44.92;;;22.13;;
46561;SDS011;32289;42.688;23.330;2023-12-28T09:29:43;47.80;;;22.73;;
46561;SDS011;32289;42.688;23.330;2023-12-28T09:33:24;41.13;;;20.77;;
46561;SDS011;32289;42.688;23.330;2023-12-28T09:37:05;36.35;;;20.70;;
46561;SDS011;32289;42.688;23.330;2023-12-28T09:40:45;33.13;;;21.05;;
46561;SDS011;32289;42.688;23.330;2023-12-28T09:44:27;31.83;;;19.05;;
46561;SDS011;32289;42.688;23.330;2023-12-28T09:48:10;31.17;;;19.33;;
46561;SDS011;32289;42.688;23.330;2023-12-28T09:51:58;32.03;;;18.80;;
46561;SDS011;32289;42.688;23.330;2023-12-28T09:55:42;29.50;;;18.20;;
46561;SDS011;32289;42.688;23.330;2023-12-28T09:59:24;42.30;;;19.20;;
46561;SDS011;32289;42.688;23.330;2023-12-28T10:03:08;35.20;;;19.30;;
46561;SDS011;32289;42.688;23.330;2023-12-28T10:06:49;29.27;;;17.85;;
46561;SDS011;32289;42.688;23.330;2023-12-28T10:10:31;33.25;;;18.52;;
46561;SDS011;32289;42.688;23.330;2023-12-28T10:14:11;31.88;;;18.90;;
46561;SDS011;32289;42.688;23.330;2023-12-28T10:17:53;29.80;;;19.20;;
46561;SDS011;32289;42.688;23.330;2023-12-28T10:21:34;32.78;;;18.58;;
46561;SDS011;32289;42.688;23.330;2023-12-28T10:25:15;37.53;;;20.83;;
46561;SDS011;32289;42.688;23.330;2023-12-28T10:28:59;36.78;;;20.30;;
46561;SDS011;32289;42.688;23.330;2023-12-28T10:32:43;31.10;;;18.67;;
46561;SDS011;32289;42.688;23.330;2023-12-28T10:36:25;31.65;;;19.52;;
46561;SDS011;32289;42.688;23.330;2023-12-28T10:40:08;29.63;;;18.48;;
46561;SDS011;32289;42.688;23.330;2023-12-28T10:44:02;35.55;;;19.60;;
46561;SDS011;32289;42.688;23.330;2023-12-28T10:47:44;42.10;;;21.30;;
46561;SDS011;32289;42.688;23.330;2023-12-28T10:51:36;37.20;;;20.40;;
46561;SDS011;32289;42.688;23.330;2023-12-28T10:55:33;33.35;;;20.63;;
46561;SDS011;32289;42.688;23.330;2023-12-28T10:59:32;30.80;;;19.65;;
46561;SDS011;32289;42.688;23.330;2023-12-28T11:03:23;35.80;;;20.30;;
46561;SDS011;32289;42.688;23.330;2023-12-28T11:07:10;36.70;;;22.00;;
46561;SDS011;32289;42.688;23.330;2023-12-28T11:10:53;34.28;;;20.80;;
46561;SDS011;32289;42.688;23.330;2023-12-28T11:14:37;33.00;;;20.00;;
46561;SDS011;32289;42.688;23.330;2023-12-28T11:18:22;32.72;;;19.75;;
46561;SDS011;32289;42.688;23.330;2023-12-28T11:22:05;39.03;;;21.38;;
46561;SDS011;32289;42.688;23.330;2023-12-28T11:25:46;39.08;;;21.35;;
46561;SDS011;32289;42.688;23.330;2023-12-28T11:29:28;35.83;;;21.30;;
46561;SDS011;32289;42.688;23.330;2023-12-28T11:33:11;35.05;;;20.23;;
46561;SDS011;32289;42.688;23.330;2023-12-28T11:36:53;33.78;;;18.83;;
46561;SDS011;32289;42.688;23.330;2023-12-28T11:40:42;36.72;;;19.92;;
46561;SDS011;32289;42.688;23.330;2023-12-28T11:44:26;35.25;;;18.02;;
46561;SDS011;32289;42.688;23.330;2023-12-28T11:48:10;31.50;;;18.83;;
46561;SDS011;32289;42.688;23.330;2023-12-28T11:52:02;28.75;;;18.38;;
46561;SDS011;32289;42.688;23.330;2023-12-28T11:55:45;32.05;;;17.88;;
46561;SDS011;32289;42.688;23.330;2023-12-28T11:59:26;32.53;;;17.83;;
46561;SDS011;32289;42.688;23.330;2023-12-28T12:03:09;38.28;;;20.20;;
46561;SDS011;32289;42.688;23.330;2023-12-28T12:06:54;29.70;;;15.80;;
46561;SDS011;32289;42.688;23.330;2023-12-28T12:10:39;30.42;;;17.63;;
46561;SDS011;32289;42.688;23.330;2023-12-28T12:14:23;26.67;;;16.35;;
46561;SDS011;32289;42.688;23.330;2023-12-28T12:18:04;23.20;;;15.13;;
46561;SDS011;32289;42.688;23.330;2023-12-28T12:21:45;25.40;;;15.20;;
46561;SDS011;32289;42.688;23.330;2023-12-28T12:25:28;27.52;;;15.88;;
46561;SDS011;32289;42.688;23.330;2023-12-28T12:29:09;30.85;;;16.85;;
46561;SDS011;32289;42.688;23.330;2023-12-28T12:32:51;29.90;;;16.95;;
46561;SDS011;32289;42.688;23.330;2023-12-28T12:36:31;36.67;;;17.67;;
46561;SDS011;32289;42.688;23.330;2023-12-28T12:40:12;28.83;;;15.88;;
46561;SDS011;32289;42.688;23.330;2023-12-28T12:43:55;37.33;;;17.35;;
46561;SDS011;32289;42.688;23.330;2023-12-28T12:47:39;26.75;;;16.00;;
46561;SDS011;32289;42.688;23.330;2023-12-28T12:51:20;30.05;;;14.80;;
46561;SDS011;32289;42.688;23.330;2023-12-28T12:55:01;36.25;;;15.55;;
46561;SDS011;32289;42.688;23.330;2023-12-28T12:58:43;30.50;;;16.63;;
46561;SDS011;32289;42.688;23.330;2023-12-28T13:02:26;33.03;;;16.45;;
46561;SDS011;32289;42.688;23.330;2023-12-28T13:06:11;30.20;;;14.02;;
46561;SDS011;32289;42.688;23.330;2023-12-28T13:09:55;23.52;;;13.50;;
46561;SDS011;32289;42.688;23.330;2023-12-28T13:13:36;36.60;;;15.15;;
46561;SDS011;32289;42.688;23.330;2023-12-28T13:17:17;30.20;;;14.85;;
46561;SDS011;32289;42.688;23.330;2023-12-28T13:20:59;29.98;;;15.82;;
46561;SDS011;32289;42.688;23.330;2023-12-28T13:24:43;28.83;;;14.48;;
46561;SDS011;32289;42.688;23.330;2023-12-28T13:28:24;33.60;;;15.00;;
46561;SDS011;32289;42.688;23.330;2023-12-28T13:32:04;26.95;;;13.55;;
46561;SDS011;32289;42.688;23.330;2023-12-28T13:35:48;35.65;;;14.40;;
46561;SDS011;32289;42.688;23.330;2023-12-28T13:39:29;22.50;;;12.18;;
46561;SDS011;32289;42.688;23.330;2023-12-28T13:43:10;24.83;;;13.13;;
46561;SDS011;32289;42.688;23.330;2023-12-28T13:46:51;26.17;;;14.75;;
46561;SDS011;32289;42.688;23.330;2023-12-28T13:50:34;32.55;;;14.02;;
46561;SDS011;32289;42.688;23.330;2023-12-28T13:54:17;29.95;;;11.43;;
46561;SDS011;32289;42.688;23.330;2023-12-28T13:57:59;28.48;;;14.93;;
46561;SDS011;32289;42.688;23.330;2023-12-28T14:01:40;33.00;;;14.38;;
46561;SDS011;32289;42.688;23.330;2023-12-28T14:05:22;31.20;;;13.95;;
46561;SDS011;32289;42.688;23.330;2023-12-28T14:09:03;32.90;;;16.83;;
46561;SDS011;32289;42.688;23.330;2023-12-28T14:12:44;35.97;;;16.13;;
46561;SDS011;32289;42.688;23.330;2023-12-28T14:16:25;37.20;;;16.05;;
46561;SDS011;32289;42.688;23.330;2023-12-28T14:20:06;44.05;;;17.80;;
46561;SDS011;32289;42.688;23.330;2023-12-28T14:23:49;35.13;;;17.73;;
46561;SDS011;32289;42.688;23.330;2023-12-28T14:27:31;39.35;;;18.30;;
46561;SDS011;32289;42.688;23.330;2023-12-28T14:31:12;36.55;;;16.15;;
46561;SDS011;32289;42.688;23.330;2023-12-28T14:34:54;45.72;;;18.70;;
46561;SDS011;32289;42.688;23.330;2023-12-28T14:38:35;30.73;;;15.93;;
46561;SDS011;32289;42.688;23.330;2023-12-28T14:42:16;52.88;;;20.70;;
46561;SDS011;32289;42.688;23.330;2023-12-28T14:45:59;48.15;;;18.45;;
46561;SDS011;32289;42.688;23.330;2023-12-28T14:49:39;41.40;;;16.73;;
46561;SDS011;32289;42.688;23.330;2023-12-28T14:53:24;50.90;;;23.00;;
46561;SDS011;32289;42.688;23.330;2023-12-28T14:57:09;42.63;;;18.58;;
46561;SDS011;32289;42.688;23.330;2023-12-28T15:00:52;45.70;;;20.73;;
46561;SDS011;32289;42.688;23.330;2023-12-28T15:04:34;40.05;;;18.25;;
46561;SDS011;32289;42.688;23.330;2023-12-28T15:08:14;30.25;;;16.27;;
46561;SDS011;32289;42.688;23.330;2023-12-28T15:11:58;40.85;;;19.65;;
46561;SDS011;32289;42.688;23.330;2023-12-28T15:15:39;42.17;;;16.25;;
46561;SDS011;32289;42.688;23.330;2023-12-28T15:19:20;37.42;;;17.67;;
46561;SDS011;32289;42.688;23.330;2023-12-28T15:23:01;42.03;;;17.33;;
46561;SDS011;32289;42.688;23.330;2023-12-28T15:26:42;47.28;;;18.15;;
46561;SDS011;32289;42.688;23.330;2023-12-28T15:30:23;42.35;;;18.02;;
46561;SDS011;32289;42.688;23.330;2023-12-28T15:34:04;32.97;;;17.33;;
46561;SDS011;32289;42.688;23.330;2023-12-28T15:37:44;38.75;;;16.23;;
46561;SDS011;32289;42.688;23.330;2023-12-28T15:41:25;39.33;;;17.92;;
46561;SDS011;32289;42.688;23.330;2023-12-28T15:45:06;50.92;;;19.48;;
46561;SDS011;32289;42.688;23.330;2023-12-28T15:48:49;44.30;;;18.98;;
46561;SDS011;32289;42.688;23.330;2023-12-28T15:52:30;63.33;;;22.65;;
46561;SDS011;32289;42.688;23.330;2023-12-28T15:56:11;37.72;;;17.60;;
46561;SDS011;32289;42.688;23.330;2023-12-28T15:59:52;40.30;;;19.13;;
46561;SDS011;32289;42.688;23.330;2023-12-28T16:03:40;39.45;;;17.83;;
46561;SDS011;32289;42.688;23.330;2023-12-28T16:07:23;57.42;;;23.73;;
46561;SDS011;32289;42.688;23.330;2023-12-28T16:11:04;60.95;;;22.08;;
46561;SDS011;32289;42.688;23.330;2023-12-28T16:14:45;55.85;;;23.42;;
46561;SDS011;32289;42.688;23.330;2023-12-28T16:18:26;46.15;;;19.67;;
46561;SDS011;32289;42.688;23.330;2023-12-28T16:22:07;48.33;;;20.20;;
46561;SDS011;32289;42.688;23.330;2023-12-28T16:25:48;47.60;;;19.77;;
46561;SDS011;32289;42.688;23.330;2023-12-28T16:29:28;43.03;;;18.73;;
46561;SDS011;32289;42.688;23.330;2023-12-28T16:33:09;46.67;;;18.05;;
46561;SDS011;32289;42.688;23.330;2023-12-28T16:36:52;48.33;;;17.40;;
46561;SDS011;32289;42.688;23.330;2023-12-28T16:40:33;49.28;;;17.08;;
46561;SDS011;32289;42.688;23.330;2023-12-28T16:44:14;36.33;;;17.08;;
46561;SDS011;32289;42.688;23.330;2023-12-28T16:47:56;45.38;;;18.65;;
46561;SDS011;32289;42.688;23.330;2023-12-28T16:51:37;41.47;;;17.50;;
46561;SDS011;32289;42.688;23.330;2023-12-28T16:55:18;58.47;;;20.45;;
46561;SDS011;32289;42.688;23.330;2023-12-28T16:58:59;50.60;;;20.95;;
46561;SDS011;32289;42.688;23.330;2023-12-28T17:02:40;51.97;;;21.85;;
46561;SDS011;32289;42.688;23.330;2023-12-28T17:06:21;59.78;;;18.40;;
46561;SDS011;32289;42.688;23.330;2023-12-28T17:10:02;51.13;;;19.70;;
46561;SDS011;32289;42.688;23.330;2023-12-28T17:13:43;50.60;;;21.10;;
46561;SDS011;32289;42.688;23.330;2023-12-28T17:17:24;48.25;;;18.92;;
46561;SDS011;32289;42.688;23.330;2023-12-28T17:21:09;53.22;;;20.52;;
46561;SDS011;32289;42.688;23.330;2023-12-28T17:24:58;56.60;;;20.02;;
46561;SDS011;32289;42.688;23.330;2023-12-28T17:32:44;43.03;;;19.13;;
46561;SDS011;32289;42.688;23.330;2023-12-28T17:36:27;57.22;;;21.13;;
46561;SDS011;32289;42.688;23.330;2023-12-28T17:40:11;52.78;;;19.13;;
46561;SDS011;32289;42.688;23.330;2023-12-28T17:43:53;50.10;;;20.92;;
46561;SDS011;32289;42.688;23.330;2023-12-28T17:47:39;57.10;;;21.63;;
46561;SDS011;32289;42.688;23.330;2023-12-28T17:51:35;50.30;;;21.95;;
46561;SDS011;32289;42.688;23.330;2023-12-28T17:55:16;55.92;;;20.10;;
46561;SDS011;32289;42.688;23.330;2023-12-28T17:58:57;49.53;;;19.95;;
46561;SDS011;32289;42.688;23.330;2023-12-28T18:02:38;52.15;;;20.05;;
46561;SDS011;32289;42.688;23.330;2023-12-28T18:06:18;51.55;;;21.42;;
46561;SDS011;32289;42.688;23.330;2023-12-28T18:09:59;62.05;;;19.42;;
46561;SDS011;32289;42.688;23.330;2023-12-28T18:13:40;61.78;;;20.30;;
46561;SDS011;32289;42.688;23.330;2023-12-28T18:17:24;60.75;;;21.73;;
46561;SDS011;32289;42.688;23.330;2023-12-28T18:21:10;47.65;;;20.60;;
46561;SDS011;32289;42.688;23.330;2023-12-28T18:24:51;47.92;;;18.50;;
46561;SDS011;32289;42.688;23.330;2023-12-28T18:28:31;43.78;;;18.45;;
46561;SDS011;32289;42.688;23.330;2023-12-28T18:32:13;55.92;;;20.35;;
46561;SDS011;32289;42.688;23.330;2023-12-28T18:35:54;45.20;;;17.67;;
46561;SDS011;32289;42.688;23.330;2023-12-28T18:39:35;55.60;;;18.83;;
46561;SDS011;32289;42.688;23.330;2023-12-28T18:43:17;55.80;;;18.50;;
46561;SDS011;32289;42.688;23.330;2023-12-28T18:46:58;44.67;;;19.58;;
46561;SDS011;32289;42.688;23.330;2023-12-28T18:50:42;74.97;;;27.52;;
46561;SDS011;32289;42.688;23.330;2023-12-28T18:54:24;52.03;;;20.67;;
46561;SDS011;32289;42.688;23.330;2023-12-28T18:58:04;59.13;;;24.58;;
46561;SDS011;32289;42.688;23.330;2023-12-28T19:01:48;51.83;;;23.70;;
46561;SDS011;32289;42.688;23.330;2023-12-28T19:05:31;56.05;;;23.75;;
46561;SDS011;32289;42.688;23.330;2023-12-28T19:09:15;58.20;;;22.13;;
46561;SDS011;32289;42.688;23.330;2023-12-28T19:12:56;43.85;;;20.15;;
46561;SDS011;32289;42.688;23.330;2023-12-28T19:16:37;54.70;;;20.77;;
46561;SDS011;32289;42.688;23.330;2023-12-28T19:20:18;48.72;;;19.08;;
46561;SDS011;32289;42.688;23.330;2023-12-28T19:23:58;56.47;;;20.13;;
46561;SDS011;32289;42.688;23.330;2023-12-28T19:27:41;56.28;;;22.00;;
46561;SDS011;32289;42.688;23.330;2023-12-28T19:31:22;48.72;;;23.08;;
46561;SDS011;32289;42.688;23.330;2023-12-28T19:35:07;56.60;;;23.83;;
46561;SDS011;32289;42.688;23.330;2023-12-28T19:38:52;57.72;;;22.45;;
46561;SDS011;32289;42.688;23.330;2023-12-28T19:42:32;49.05;;;21.58;;
46561;SDS011;32289;42.688;23.330;2023-12-28T19:50:24;53.05;;;24.83;;
46561;SDS011;32289;42.688;23.330;2023-12-28T19:54:18;61.85;;;23.67;;
46561;SDS011;32289;42.688;23.330;2023-12-28T19:58:01;65.47;;;25.63;;
46561;SDS011;32289;42.688;23.330;2023-12-28T20:01:49;103.50;;;37.47;;
46561;SDS011;32289;42.688;23.330;2023-12-28T20:05:30;94.68;;;40.63;;
46561;SDS011;32289;42.688;23.330;2023-12-28T20:09:13;93.78;;;39.30;;
46561;SDS011;32289;42.688;23.330;2023-12-28T20:12:54;84.28;;;38.53;;
46561;SDS011;32289;42.688;23.330;2023-12-28T20:16:35;80.13;;;36.25;;
46561;SDS011;32289;42.688;23.330;2023-12-28T20:20:15;102.82;;;36.10;;
46561;SDS011;32289;42.688;23.330;2023-12-28T20:23:56;79.75;;;35.17;;
46561;SDS011;32289;42.688;23.330;2023-12-28T20:27:40;82.18;;;36.58;;
46561;SDS011;32289;42.688;23.330;2023-12-28T20:31:23;81.60;;;35.75;;
46561;SDS011;32289;42.688;23.330;2023-12-28T20:35:05;69.10;;;31.02;;
46561;SDS011;32289;42.688;23.330;2023-12-28T20:38:46;77.55;;;31.48;;
46561;SDS011;32289;42.688;23.330;2023-12-28T20:42:29;77.03;;;34.97;;
46561;SDS011;32289;42.688;23.330;2023-12-28T20:46:12;84.18;;;36.70;;
46561;SDS011;32289;42.688;23.330;2023-12-28T20:49:55;72.32;;;33.67;;
46561;SDS011;32289;42.688;23.330;2023-12-28T20:53:38;88.38;;;39.17;;
46561;SDS011;32289;42.688;23.330;2023-12-28T20:57:24;90.25;;;37.72;;
46561;SDS011;32289;42.688;23.330;2023-12-28T21:01:09;85.20;;;38.65;;
46561;SDS011;32289;42.688;23.330;2023-12-28T21:04:50;96.28;;;37.38;;
46561;SDS011;32289;42.688;23.330;2023-12-28T21:08:31;81.43;;;39.92;;
46561;SDS011;32289;42.688;23.330;2023-12-28T21:12:14;88.50;;;39.03;;
46561;SDS011;32289;42.688;23.330;2023-12-28T21:16:02;104.45;;;40.67;;
46561;SDS011;32289;42.688;23.330;2023-12-28T21:19:43;98.07;;;43.10;;
46561;SDS011;32289;42.688;23.330;2023-12-28T21:23:24;78.57;;;34.65;;
46561;SDS011;32289;42.688;23.330;2023-12-28T21:27:05;72.93;;;32.72;;
46561;SDS011;32289;42.688;23.330;2023-12-28T21:30:46;83.70;;;35.47;;
46561;SDS011;32289;42.688;23.330;2023-12-28T21:34:26;95.00;;;35.58;;